Terminal Aerodrome Forecast
Issued by NWS

Home | Current Version | Previous Version | Text Only | Print | Product List | Glossary On
Versions: 1 2 3 4 5 6 7 8 9 10 11 12 13 14 15 16 17 18 19 20 21 22 23 24 25 26 27 28 29 30
000
FTUS43 KDLH 011958 AAE
TAFHYR
TAF AMD
KHYR 011958Z 0120/0218 01008KT P6SM SCT020 BKN120
     FM012100 36006KT P6SM FEW030 SCT120
     FM020100 35002KT P6SM SCT060=

USA.gov is the U.S. government's official web portal to all federal, state and local government web resources and services.